sensor_id;sensor_type;location;lat;lon;timestamp;P1;durP1;ratioP1;P2;durP2;ratioP2
57667;SDS011;43499;52.366;12.912;2022-08-07T00:00:53;5.20;;;2.33;;
57667;SDS011;43499;52.366;12.912;2022-08-07T00:01:55;3.78;;;2.45;;
57667;SDS011;43499;52.366;12.912;2022-08-07T00:02:57;3.58;;;2.33;;
57667;SDS011;43499;52.366;12.912;2022-08-07T00:03:58;3.75;;;2.10;;
57667;SDS011;43499;52.366;12.912;2022-08-07T00:05:00;4.22;;;2.33;;
57667;SDS011;43499;52.366;12.912;2022-08-07T00:06:01;3.92;;;2.42;;
57667;SDS011;43499;52.366;12.912;2022-08-07T00:07:04;5.18;;;2.22;;
57667;SDS011;43499;52.366;12.912;2022-08-07T00:08:05;3.47;;;2.10;;
57667;SDS011;43499;52.366;12.912;2022-08-07T00:09:07;2.63;;;2.25;;
57667;SDS011;43499;52.366;12.912;2022-08-07T00:10:08;3.65;;;2.30;;
57667;SDS011;43499;52.366;12.912;2022-08-07T00:11:11;6.10;;;2.72;;
57667;SDS011;43499;52.366;12.912;2022-08-07T00:12:12;2.67;;;2.35;;
57667;SDS011;43499;52.366;12.912;2022-08-07T00:13:14;2.80;;;2.17;;
57667;SDS011;43499;52.366;12.912;2022-08-07T00:14:16;6.75;;;2.47;;
57667;SDS011;43499;52.366;12.912;2022-08-07T00:15:17;5.55;;;2.55;;
57667;SDS011;43499;52.366;12.912;2022-08-07T00:16:18;3.83;;;2.65;;
57667;SDS011;43499;52.366;12.912;2022-08-07T00:17:22;6.03;;;2.70;;
57667;SDS011;43499;52.366;12.912;2022-08-07T00:18:24;3.30;;;2.35;;
57667;SDS011;43499;52.366;12.912;2022-08-07T00:19:27;3.42;;;2.50;;
57667;SDS011;43499;52.366;12.912;2022-08-07T00:20:30;5.25;;;2.45;;
57667;SDS011;43499;52.366;12.912;2022-08-07T00:21:33;4.38;;;2.53;;
57667;SDS011;43499;52.366;12.912;2022-08-07T00:22:33;4.30;;;2.30;;
57667;SDS011;43499;52.366;12.912;2022-08-07T00:23:36;4.90;;;2.80;;
57667;SDS011;43499;52.366;12.912;2022-08-07T00:24:39;5.38;;;3.25;;
57667;SDS011;43499;52.366;12.912;2022-08-07T00:25:41;5.60;;;2.80;;
57667;SDS011;43499;52.366;12.912;2022-08-07T00:26:42;4.45;;;3.13;;
57667;SDS011;43499;52.366;12.912;2022-08-07T00:27:44;3.83;;;2.50;;
57667;SDS011;43499;52.366;12.912;2022-08-07T00:28:45;6.63;;;3.10;;
57667;SDS011;43499;52.366;12.912;2022-08-07T00:29:47;5.70;;;2.45;;
57667;SDS011;43499;52.366;12.912;2022-08-07T00:30:48;3.42;;;2.70;;
57667;SDS011;43499;52.366;12.912;2022-08-07T00:31:50;5.47;;;3.05;;
57667;SDS011;43499;52.366;12.912;2022-08-07T00:32:54;5.78;;;3.15;;
57667;SDS011;43499;52.366;12.912;2022-08-07T00:33:56;4.05;;;2.75;;
57667;SDS011;43499;52.366;12.912;2022-08-07T00:34:57;6.80;;;2.70;;
57667;SDS011;43499;52.366;12.912;2022-08-07T00:35:59;5.18;;;2.50;;
57667;SDS011;43499;52.366;12.912;2022-08-07T00:37:00;4.57;;;3.03;;
57667;SDS011;43499;52.366;12.912;2022-08-07T00:38:02;4.35;;;2.60;;
57667;SDS011;43499;52.366;12.912;2022-08-07T00:39:05;5.13;;;3.10;;
57667;SDS011;43499;52.366;12.912;2022-08-07T00:40:07;3.55;;;2.92;;
57667;SDS011;43499;52.366;12.912;2022-08-07T00:41:09;5.15;;;3.38;;
57667;SDS011;43499;52.366;12.912;2022-08-07T00:42:11;5.35;;;3.00;;
57667;SDS011;43499;52.366;12.912;2022-08-07T00:43:12;5.35;;;3.20;;
57667;SDS011;43499;52.366;12.912;2022-08-07T00:44:14;5.95;;;3.03;;
57667;SDS011;43499;52.366;12.912;2022-08-07T00:45:15;8.88;;;3.67;;
57667;SDS011;43499;52.366;12.912;2022-08-07T00:46:17;8.57;;;3.83;;
57667;SDS011;43499;52.366;12.912;2022-08-07T00:47:19;6.20;;;3.35;;
57667;SDS011;43499;52.366;12.912;2022-08-07T00:48:22;3.72;;;2.75;;
57667;SDS011;43499;52.366;12.912;2022-08-07T00:49:23;4.88;;;3.28;;
57667;SDS011;43499;52.366;12.912;2022-08-07T00:50:25;5.07;;;3.50;;
57667;SDS011;43499;52.366;12.912;2022-08-07T00:51:26;6.45;;;3.13;;
57667;SDS011;43499;52.366;12.912;2022-08-07T00:52:29;9.10;;;4.18;;
57667;SDS011;43499;52.366;12.912;2022-08-07T00:53:30;6.75;;;3.85;;
57667;SDS011;43499;52.366;12.912;2022-08-07T00:54:32;6.47;;;3.40;;
57667;SDS011;43499;52.366;12.912;2022-08-07T00:55:33;5.90;;;3.30;;
57667;SDS011;43499;52.366;12.912;2022-08-07T00:56:35;6.35;;;3.90;;
57667;SDS011;43499;52.366;12.912;2022-08-07T00:57:36;6.22;;;3.50;;
57667;SDS011;43499;52.366;12.912;2022-08-07T00:58:40;6.88;;;3.63;;
57667;SDS011;43499;52.366;12.912;2022-08-07T00:59:42;5.57;;;2.83;;
57667;SDS011;43499;52.366;12.912;2022-08-07T01:00:44;5.10;;;3.10;;
57667;SDS011;43499;52.366;12.912;2022-08-07T01:01:45;4.32;;;3.20;;
57667;SDS011;43499;52.366;12.912;2022-08-07T01:02:47;4.28;;;3.17;;
57667;SDS011;43499;52.366;12.912;2022-08-07T01:03:50;4.40;;;3.33;;
57667;SDS011;43499;52.366;12.912;2022-08-07T01:04:53;4.60;;;3.15;;
57667;SDS011;43499;52.366;12.912;2022-08-07T01:05:54;6.30;;;3.30;;
57667;SDS011;43499;52.366;12.912;2022-08-07T01:06:57;4.95;;;3.30;;
57667;SDS011;43499;52.366;12.912;2022-08-07T01:07:58;6.90;;;3.13;;
57667;SDS011;43499;52.366;12.912;2022-08-07T01:09:00;3.63;;;2.80;;
57667;SDS011;43499;52.366;12.912;2022-08-07T01:10:03;5.15;;;3.30;;
57667;SDS011;43499;52.366;12.912;2022-08-07T01:11:05;5.78;;;3.25;;
57667;SDS011;43499;52.366;12.912;2022-08-07T01:12:07;6.18;;;3.17;;
57667;SDS011;43499;52.366;12.912;2022-08-07T01:13:09;4.47;;;3.03;;
57667;SDS011;43499;52.366;12.912;2022-08-07T01:14:11;4.72;;;2.92;;
57667;SDS011;43499;52.366;12.912;2022-08-07T01:15:12;8.52;;;2.80;;
57667;SDS011;43499;52.366;12.912;2022-08-07T01:16:15;6.82;;;2.78;;
57667;SDS011;43499;52.366;12.912;2022-08-07T01:17:16;6.57;;;3.13;;
57667;SDS011;43499;52.366;12.912;2022-08-07T01:18:19;5.20;;;3.17;;
57667;SDS011;43499;52.366;12.912;2022-08-07T01:19:21;5.93;;;3.30;;
57667;SDS011;43499;52.366;12.912;2022-08-07T01:20:28;5.93;;;2.97;;
57667;SDS011;43499;52.366;12.912;2022-08-07T01:21:34;6.68;;;3.03;;
57667;SDS011;43499;52.366;12.912;2022-08-07T01:22:36;3.42;;;2.78;;
57667;SDS011;43499;52.366;12.912;2022-08-07T01:23:38;8.43;;;3.17;;
57667;SDS011;43499;52.366;12.912;2022-08-07T01:24:42;3.78;;;3.00;;
57667;SDS011;43499;52.366;12.912;2022-08-07T01:25:44;5.35;;;3.00;;
57667;SDS011;43499;52.366;12.912;2022-08-07T01:26:47;7.82;;;3.00;;
57667;SDS011;43499;52.366;12.912;2022-08-07T01:27:49;6.28;;;3.08;;
57667;SDS011;43499;52.366;12.912;2022-08-07T01:28:52;3.85;;;2.83;;
57667;SDS011;43499;52.366;12.912;2022-08-07T01:29:54;4.72;;;3.05;;
57667;SDS011;43499;52.366;12.912;2022-08-07T01:30:57;6.68;;;2.85;;
57667;SDS011;43499;52.366;12.912;2022-08-07T01:31:58;4.78;;;3.63;;
57667;SDS011;43499;52.366;12.912;2022-08-07T01:33:01;4.35;;;3.13;;
57667;SDS011;43499;52.366;12.912;2022-08-07T01:34:02;4.25;;;3.33;;
57667;SDS011;43499;52.366;12.912;2022-08-07T01:35:05;4.47;;;2.97;;
57667;SDS011;43499;52.366;12.912;2022-08-07T01:36:07;6.60;;;3.47;;
57667;SDS011;43499;52.366;12.912;2022-08-07T01:37:12;5.03;;;2.80;;
57667;SDS011;43499;52.366;12.912;2022-08-07T01:38:16;6.13;;;2.83;;
57667;SDS011;43499;52.366;12.912;2022-08-07T01:39:18;7.93;;;3.58;;
57667;SDS011;43499;52.366;12.912;2022-08-07T01:40:20;4.05;;;3.08;;
57667;SDS011;43499;52.366;12.912;2022-08-07T01:41:23;5.35;;;3.10;;
57667;SDS011;43499;52.366;12.912;2022-08-07T01:42:25;5.90;;;3.40;;
57667;SDS011;43499;52.366;12.912;2022-08-07T01:43:28;5.63;;;2.72;;
57667;SDS011;43499;52.366;12.912;2022-08-07T01:44:29;10.35;;;3.35;;
57667;SDS011;43499;52.366;12.912;2022-08-07T01:45:32;4.25;;;2.83;;
57667;SDS011;43499;52.366;12.912;2022-08-07T01:46:33;4.55;;;3.05;;
57667;SDS011;43499;52.366;12.912;2022-08-07T01:47:35;7.18;;;3.05;;
57667;SDS011;43499;52.366;12.912;2022-08-07T01:48:36;6.60;;;3.58;;
57667;SDS011;43499;52.366;12.912;2022-08-07T01:49:39;4.03;;;2.90;;
57667;SDS011;43499;52.366;12.912;2022-08-07T01:50:40;5.10;;;3.10;;
57667;SDS011;43499;52.366;12.912;2022-08-07T01:51:46;6.35;;;3.42;;
57667;SDS011;43499;52.366;12.912;2022-08-07T01:52:50;8.35;;;4.20;;
57667;SDS011;43499;52.366;12.912;2022-08-07T01:53:56;8.77;;;4.53;;
57667;SDS011;43499;52.366;12.912;2022-08-07T01:54:58;7.10;;;4.00;;
57667;SDS011;43499;52.366;12.912;2022-08-07T01:56:01;7.03;;;4.00;;
57667;SDS011;43499;52.366;12.912;2022-08-07T01:57:07;4.97;;;3.63;;
57667;SDS011;43499;52.366;12.912;2022-08-07T01:58:14;9.30;;;3.58;;
57667;SDS011;43499;52.366;12.912;2022-08-07T01:59:21;4.88;;;3.35;;
57667;SDS011;43499;52.366;12.912;2022-08-07T02:00:27;4.18;;;3.10;;
57667;SDS011;43499;52.366;12.912;2022-08-07T02:01:32;5.18;;;2.92;;
57667;SDS011;43499;52.366;12.912;2022-08-07T02:02:37;4.45;;;2.85;;
57667;SDS011;43499;52.366;12.912;2022-08-07T02:03:44;4.32;;;3.00;;
57667;SDS011;43499;52.366;12.912;2022-08-07T02:04:50;6.72;;;3.03;;
57667;SDS011;43499;52.366;12.912;2022-08-07T02:05:56;3.65;;;2.97;;
57667;SDS011;43499;52.366;12.912;2022-08-07T02:07:02;5.93;;;3.47;;
57667;SDS011;43499;52.366;12.912;2022-08-07T02:08:08;12.52;;;3.53;;
57667;SDS011;43499;52.366;12.912;2022-08-07T02:09:14;4.10;;;3.05;;
57667;SDS011;43499;52.366;12.912;2022-08-07T02:10:21;5.30;;;3.00;;
57667;SDS011;43499;52.366;12.912;2022-08-07T02:11:25;6.32;;;3.05;;
57667;SDS011;43499;52.366;12.912;2022-08-07T02:12:27;4.22;;;3.08;;
57667;SDS011;43499;52.366;12.912;2022-08-07T02:13:33;5.53;;;3.10;;
57667;SDS011;43499;52.366;12.912;2022-08-07T02:14:36;4.60;;;3.22;;
57667;SDS011;43499;52.366;12.912;2022-08-07T02:15:39;5.82;;;3.22;;
57667;SDS011;43499;52.366;12.912;2022-08-07T02:16:41;6.43;;;3.20;;
57667;SDS011;43499;52.366;12.912;2022-08-07T02:17:44;3.85;;;2.95;;
57667;SDS011;43499;52.366;12.912;2022-08-07T02:18:47;5.95;;;2.78;;
57667;SDS011;43499;52.366;12.912;2022-08-07T02:19:50;3.80;;;3.20;;
57667;SDS011;43499;52.366;12.912;2022-08-07T02:20:53;6.68;;;3.13;;
57667;SDS011;43499;52.366;12.912;2022-08-07T02:21:56;5.03;;;2.80;;
57667;SDS011;43499;52.366;12.912;2022-08-07T02:23:00;4.53;;;3.10;;
57667;SDS011;43499;52.366;12.912;2022-08-07T02:24:06;4.25;;;2.95;;
57667;SDS011;43499;52.366;12.912;2022-08-07T02:25:09;8.23;;;3.10;;
57667;SDS011;43499;52.366;12.912;2022-08-07T02:26:13;5.38;;;3.00;;
57667;SDS011;43499;52.366;12.912;2022-08-07T02:27:16;5.68;;;3.22;;
57667;SDS011;43499;52.366;12.912;2022-08-07T02:28:21;8.52;;;3.10;;
57667;SDS011;43499;52.366;12.912;2022-08-07T02:29:25;4.88;;;3.17;;
57667;SDS011;43499;52.366;12.912;2022-08-07T02:30:28;5.80;;;3.10;;
57667;SDS011;43499;52.366;12.912;2022-08-07T02:31:31;6.22;;;3.15;;
57667;SDS011;43499;52.366;12.912;2022-08-07T02:32:34;7.88;;;3.38;;
57667;SDS011;43499;52.366;12.912;2022-08-07T02:33:37;4.10;;;3.10;;
57667;SDS011;43499;52.366;12.912;2022-08-07T02:34:39;5.63;;;3.20;;
57667;SDS011;43499;52.366;12.912;2022-08-07T02:35:42;4.53;;;3.10;;
57667;SDS011;43499;52.366;12.912;2022-08-07T02:36:46;4.00;;;3.03;;
57667;SDS011;43499;52.366;12.912;2022-08-07T02:37:49;7.57;;;3.33;;
57667;SDS011;43499;52.366;12.912;2022-08-07T02:38:52;3.17;;;2.78;;
57667;SDS011;43499;52.366;12.912;2022-08-07T02:39:57;5.82;;;3.03;;
57667;SDS011;43499;52.366;12.912;2022-08-07T02:41:00;5.43;;;3.17;;
57667;SDS011;43499;52.366;12.912;2022-08-07T02:42:02;4.05;;;2.88;;
57667;SDS011;43499;52.366;12.912;2022-08-07T02:43:05;4.53;;;3.30;;
57667;SDS011;43499;52.366;12.912;2022-08-07T02:44:07;7.15;;;3.65;;
57667;SDS011;43499;52.366;12.912;2022-08-07T02:45:13;8.13;;;3.35;;
57667;SDS011;43499;52.366;12.912;2022-08-07T02:46:16;8.30;;;2.83;;
57667;SDS011;43499;52.366;12.912;2022-08-07T02:47:21;6.38;;;3.40;;
57667;SDS011;43499;52.366;12.912;2022-08-07T02:48:22;6.47;;;2.83;;
57667;SDS011;43499;52.366;12.912;2022-08-07T02:49:25;3.10;;;2.70;;
57667;SDS011;43499;52.366;12.912;2022-08-07T02:50:26;3.58;;;3.00;;
57667;SDS011;43499;52.366;12.912;2022-08-07T02:51:29;4.32;;;2.88;;
57667;SDS011;43499;52.366;12.912;2022-08-07T02:52:33;6.15;;;3.00;;
57667;SDS011;43499;52.366;12.912;2022-08-07T02:53:38;7.93;;;3.20;;
57667;SDS011;43499;52.366;12.912;2022-08-07T02:54:41;6.65;;;3.38;;
57667;SDS011;43499;52.366;12.912;2022-08-07T02:55:45;3.35;;;2.92;;
57667;SDS011;43499;52.366;12.912;2022-08-07T02:56:48;6.85;;;2.92;;
57667;SDS011;43499;52.366;12.912;2022-08-07T02:57:54;5.28;;;3.30;;
57667;SDS011;43499;52.366;12.912;2022-08-07T02:59:01;4.05;;;3.00;;
57667;SDS011;43499;52.366;12.912;2022-08-07T03:00:07;9.93;;;3.28;;
57667;SDS011;43499;52.366;12.912;2022-08-07T03:01:09;6.07;;;3.40;;
57667;SDS011;43499;52.366;12.912;2022-08-07T03:02:12;6.28;;;3.05;;
57667;SDS011;43499;52.366;12.912;2022-08-07T03:03:14;9.75;;;3.65;;
57667;SDS011;43499;52.366;12.912;2022-08-07T03:04:18;3.53;;;2.95;;
57667;SDS011;43499;52.366;12.912;2022-08-07T03:05:20;8.07;;;3.13;;
57667;SDS011;43499;52.366;12.912;2022-08-07T03:06:24;3.30;;;2.95;;
57667;SDS011;43499;52.366;12.912;2022-08-07T03:07:27;9.38;;;3.40;;
57667;SDS011;43499;52.366;12.912;2022-08-07T03:08:30;4.28;;;3.00;;
57667;SDS011;43499;52.366;12.912;2022-08-07T03:09:31;5.90;;;3.38;;
57667;SDS011;43499;52.366;12.912;2022-08-07T03:10:33;4.32;;;3.30;;
57667;SDS011;43499;52.366;12.912;2022-08-07T03:11:36;4.25;;;3.30;;
57667;SDS011;43499;52.366;12.912;2022-08-07T03:12:39;5.55;;;3.20;;
57667;SDS011;43499;52.366;12.912;2022-08-07T03:13:41;4.47;;;3.10;;
57667;SDS011;43499;52.366;12.912;2022-08-07T03:14:44;9.35;;;3.13;;
57667;SDS011;43499;52.366;12.912;2022-08-07T03:15:45;3.70;;;3.05;;
57667;SDS011;43499;52.366;12.912;2022-08-07T03:16:48;4.68;;;3.10;;
57667;SDS011;43499;52.366;12.912;2022-08-07T03:17:49;4.07;;;3.17;;
57667;SDS011;43499;52.366;12.912;2022-08-07T03:18:51;4.28;;;3.10;;
57667;SDS011;43499;52.366;12.912;2022-08-07T03:19:53;4.25;;;3.13;;
57667;SDS011;43499;52.366;12.912;2022-08-07T03:20:55;4.78;;;3.58;;
57667;SDS011;43499;52.366;12.912;2022-08-07T03:21:56;4.32;;;3.33;;
57667;SDS011;43499;52.366;12.912;2022-08-07T03:22:59;4.55;;;2.78;;
57667;SDS011;43499;52.366;12.912;2022-08-07T03:24:02;6.15;;;3.55;;
57667;SDS011;43499;52.366;12.912;2022-08-07T03:25:05;4.63;;;2.88;;
57667;SDS011;43499;52.366;12.912;2022-08-07T03:26:06;5.00;;;3.28;;
57667;SDS011;43499;52.366;12.912;2022-08-07T03:27:12;5.70;;;3.72;;
57667;SDS011;43499;52.366;12.912;2022-08-07T03:28:15;4.70;;;3.13;;
57667;SDS011;43499;52.366;12.912;2022-08-07T03:29:18;7.93;;;3.72;;
57667;SDS011;43499;52.366;12.912;2022-08-07T03:30:20;4.07;;;3.45;;
57667;SDS011;43499;52.366;12.912;2022-08-07T03:31:22;7.47;;;3.15;;
57667;SDS011;43499;52.366;12.912;2022-08-07T03:32:28;7.07;;;3.28;;
57667;SDS011;43499;52.366;12.912;2022-08-07T03:33:33;4.40;;;3.15;;
57667;SDS011;43499;52.366;12.912;2022-08-07T03:34:36;8.60;;;3.72;;
57667;SDS011;43499;52.366;12.912;2022-08-07T03:35:39;4.97;;;3.28;;
57667;SDS011;43499;52.366;12.912;2022-08-07T03:36:41;7.28;;;3.30;;
57667;SDS011;43499;52.366;12.912;2022-08-07T03:37:52;5.40;;;3.25;;
57667;SDS011;43499;52.366;12.912;2022-08-07T03:38:56;4.78;;;3.17;;
57667;SDS011;43499;52.366;12.912;2022-08-07T03:40:02;6.82;;;3.45;;
57667;SDS011;43499;52.366;12.912;2022-08-07T03:41:05;3.67;;;3.08;;
57667;SDS011;43499;52.366;12.912;2022-08-07T03:42:08;4.15;;;2.88;;
57667;SDS011;43499;52.366;12.912;2022-08-07T03:43:12;3.85;;;3.13;;
57667;SDS011;43499;52.366;12.912;2022-08-07T03:44:14;4.75;;;2.80;;
57667;SDS011;43499;52.366;12.912;2022-08-07T03:45:16;6.85;;;3.25;;
57667;SDS011;43499;52.366;12.912;2022-08-07T03:46:19;3.75;;;2.85;;
57667;SDS011;43499;52.366;12.912;2022-08-07T03:47:21;7.53;;;3.47;;
57667;SDS011;43499;52.366;12.912;2022-08-07T03:48:23;5.50;;;3.20;;
57667;SDS011;43499;52.366;12.912;2022-08-07T03:49:25;4.72;;;2.83;;
57667;SDS011;43499;52.366;12.912;2022-08-07T03:50:28;5.10;;;2.80;;
57667;SDS011;43499;52.366;12.912;2022-08-07T03:51:29;5.13;;;3.47;;
57667;SDS011;43499;52.366;12.912;2022-08-07T03:52:33;6.10;;;3.08;;
57667;SDS011;43499;52.366;12.912;2022-08-07T03:53:36;4.65;;;3.00;;
57667;SDS011;43499;52.366;12.912;2022-08-07T03:54:39;5.00;;;3.38;;
57667;SDS011;43499;52.366;12.912;2022-08-07T03:55:40;10.30;;;3.42;;
57667;SDS011;43499;52.366;12.912;2022-08-07T03:56:43;6.50;;;2.95;;
57667;SDS011;43499;52.366;12.912;2022-08-07T03:57:45;5.32;;;3.25;;
57667;SDS011;43499;52.366;12.912;2022-08-07T03:58:50;5.78;;;3.65;;
57667;SDS011;43499;52.366;12.912;2022-08-07T03:59:51;4.30;;;3.70;;
57667;SDS011;43499;52.366;12.912;2022-08-07T04:00:55;4.75;;;3.25;;
57667;SDS011;43499;52.366;12.912;2022-08-07T04:01:57;7.38;;;3.35;;
57667;SDS011;43499;52.366;12.912;2022-08-07T04:03:00;5.47;;;3.28;;
57667;SDS011;43499;52.366;12.912;2022-08-07T04:04:01;4.32;;;3.25;;
57667;SDS011;43499;52.366;12.912;2022-08-07T04:05:03;5.53;;;3.53;;
57667;SDS011;43499;52.366;12.912;2022-08-07T04:06:06;4.65;;;3.25;;
57667;SDS011;43499;52.366;12.912;2022-08-07T04:07:08;4.50;;;3.25;;
57667;SDS011;43499;52.366;12.912;2022-08-07T04:08:10;4.63;;;3.35;;
57667;SDS011;43499;52.366;12.912;2022-08-07T04:09:13;4.25;;;3.65;;
57667;SDS011;43499;52.366;12.912;2022-08-07T04:10:15;4.88;;;3.20;;
57667;SDS011;43499;52.366;12.912;2022-08-07T04:11:17;7.90;;;3.65;;
57667;SDS011;43499;52.366;12.912;2022-08-07T04:12:18;6.15;;;3.38;;
57667;SDS011;43499;52.366;12.912;2022-08-07T04:13:20;5.32;;;3.70;;
57667;SDS011;43499;52.366;12.912;2022-08-07T04:14:24;6.97;;;3.85;;
57667;SDS011;43499;52.366;12.912;2022-08-07T04:15:28;6.85;;;3.15;;
57667;SDS011;43499;52.366;12.912;2022-08-07T04:16:29;5.13;;;3.67;;
57667;SDS011;43499;52.366;12.912;2022-08-07T04:17:32;6.18;;;3.78;;
57667;SDS011;43499;52.366;12.912;2022-08-07T04:18:33;7.38;;;3.65;;
57667;SDS011;43499;52.366;12.912;2022-08-07T04:19:35;6.65;;;3.60;;
57667;SDS011;43499;52.366;12.912;2022-08-07T04:20:40;5.85;;;3.60;;
57667;SDS011;43499;52.366;12.912;2022-08-07T04:21:42;5.50;;;3.83;;
57667;SDS011;43499;52.366;12.912;2022-08-07T04:22:44;6.43;;;3.63;;
57667;SDS011;43499;52.366;12.912;2022-08-07T04:23:49;7.40;;;4.13;;
57667;SDS011;43499;52.366;12.912;2022-08-07T04:24:50;4.97;;;3.90;;
57667;SDS011;43499;52.366;12.912;2022-08-07T04:25:53;3.80;;;3.22;;
57667;SDS011;43499;52.366;12.912;2022-08-07T04:26:55;7.13;;;4.25;;
57667;SDS011;43499;52.366;12.912;2022-08-07T04:27:58;6.28;;;4.18;;
57667;SDS011;43499;52.366;12.912;2022-08-07T04:29:00;11.20;;;4.55;;
57667;SDS011;43499;52.366;12.912;2022-08-07T04:30:02;5.65;;;3.90;;
57667;SDS011;43499;52.366;12.912;2022-08-07T04:31:05;9.10;;;4.20;;
57667;SDS011;43499;52.366;12.912;2022-08-07T04:32:07;11.00;;;4.63;;
57667;SDS011;43499;52.366;12.912;2022-08-07T04:33:09;11.35;;;3.75;;
57667;SDS011;43499;52.366;12.912;2022-08-07T04:34:11;13.55;;;4.18;;
57667;SDS011;43499;52.366;12.912;2022-08-07T04:35:13;9.35;;;4.07;;
57667;SDS011;43499;52.366;12.912;2022-08-07T04:36:15;16.42;;;4.45;;
57667;SDS011;43499;52.366;12.912;2022-08-07T04:37:16;6.75;;;3.95;;
57667;SDS011;43499;52.366;12.912;2022-08-07T04:38:17;9.38;;;4.22;;
57667;SDS011;43499;52.366;12.912;2022-08-07T04:39:19;5.13;;;3.45;;
57667;SDS011;43499;52.366;12.912;2022-08-07T04:40:21;7.88;;;3.80;;
57667;SDS011;43499;52.366;12.912;2022-08-07T04:41:24;7.45;;;4.13;;
57667;SDS011;43499;52.366;12.912;2022-08-07T04:42:26;12.80;;;3.65;;
57667;SDS011;43499;52.366;12.912;2022-08-07T04:43:31;9.40;;;4.15;;
57667;SDS011;43499;52.366;12.912;2022-08-07T04:44:36;5.15;;;3.25;;
57667;SDS011;43499;52.366;12.912;2022-08-07T04:45:41;9.40;;;3.40;;
57667;SDS011;43499;52.366;12.912;2022-08-07T04:46:54;9.48;;;3.55;;
57667;SDS011;43499;52.366;12.912;2022-08-07T04:48:02;5.57;;;3.10;;
57667;SDS011;43499;52.366;12.912;2022-08-07T04:49:09;7.50;;;4.03;;
57667;SDS011;43499;52.366;12.912;2022-08-07T04:50:17;12.13;;;3.63;;
57667;SDS011;43499;52.366;12.912;2022-08-07T04:51:31;7.63;;;3.47;;
57667;SDS011;43499;52.366;12.912;2022-08-07T04:52:38;5.15;;;3.30;;
57667;SDS011;43499;52.366;12.912;2022-08-07T04:53:45;11.10;;;3.63;;
57667;SDS011;43499;52.366;12.912;2022-08-07T04:54:54;6.32;;;3.28;;
57667;SDS011;43499;52.366;12.912;2022-08-07T04:56:00;6.20;;;3.97;;
57667;SDS011;43499;52.366;12.912;2022-08-07T04:57:14;11.45;;;3.60;;
57667;SDS011;43499;52.366;12.912;2022-08-07T04:58:25;10.80;;;3.85;;
57667;SDS011;43499;52.366;12.912;2022-08-07T04:59:36;13.10;;;3.50;;
57667;SDS011;43499;52.366;12.912;2022-08-07T05:00:44;4.80;;;3.90;;
57667;SDS011;43499;52.366;12.912;2022-08-07T05:01:54;11.50;;;4.30;;
57667;SDS011;43499;52.366;12.912;2022-08-07T05:03:03;6.60;;;3.80;;
57667;SDS011;43499;52.366;12.912;2022-08-07T05:04:14;9.02;;;3.70;;
57667;SDS011;43499;52.366;12.912;2022-08-07T05:05:19;8.20;;;3.60;;
57667;SDS011;43499;52.366;12.912;2022-08-07T05:06:24;4.75;;;3.40;;
57667;SDS011;43499;52.366;12.912;2022-08-07T05:07:35;5.72;;;2.97;;
57667;SDS011;43499;52.366;12.912;2022-08-07T05:08:43;6.88;;;3.30;;
57667;SDS011;43499;52.366;12.912;2022-08-07T05:09:49;7.63;;;3.35;;
57667;SDS011;43499;52.366;12.912;2022-08-07T05:11:00;5.97;;;3.47;;
57667;SDS011;43499;52.366;12.912;2022-08-07T05:12:08;7.13;;;3.72;;
57667;SDS011;43499;52.366;12.912;2022-08-07T05:13:13;5.90;;;3.33;;
57667;SDS011;43499;52.366;12.912;2022-08-07T05:14:18;8.98;;;3.70;;
57667;SDS011;43499;52.366;12.912;2022-08-07T05:15:21;8.10;;;3.40;;
57667;SDS011;43499;52.366;12.912;2022-08-07T05:16:28;9.80;;;3.50;;
57667;SDS011;43499;52.366;12.912;2022-08-07T05:17:31;4.93;;;3.20;;
57667;SDS011;43499;52.366;12.912;2022-08-07T05:18:35;5.28;;;3.22;;
57667;SDS011;43499;52.366;12.912;2022-08-07T05:19:43;4.82;;;3.30;;
57667;SDS011;43499;52.366;12.912;2022-08-07T05:20:49;6.93;;;3.38;;
57667;SDS011;43499;52.366;12.912;2022-08-07T05:21:55;8.35;;;3.40;;
57667;SDS011;43499;52.366;12.912;2022-08-07T05:23:03;7.47;;;4.38;;
57667;SDS011;43499;52.366;12.912;2022-08-07T05:24:10;4.93;;;3.17;;
57667;SDS011;43499;52.366;12.912;2022-08-07T05:25:14;3.92;;;2.83;;
57667;SDS011;43499;52.366;12.912;2022-08-07T05:26:19;5.25;;;3.45;;
57667;SDS011;43499;52.366;12.912;2022-08-07T05:27:22;9.00;;;4.13;;
57667;SDS011;43499;52.366;12.912;2022-08-07T05:28:27;4.93;;;3.40;;
57667;SDS011;43499;52.366;12.912;2022-08-07T05:29:29;6.15;;;3.20;;
57667;SDS011;43499;52.366;12.912;2022-08-07T05:30:33;4.65;;;3.35;;
57667;SDS011;43499;52.366;12.912;2022-08-07T05:31:38;8.15;;;3.42;;
57667;SDS011;43499;52.366;12.912;2022-08-07T05:32:41;9.30;;;3.83;;
57667;SDS011;43499;52.366;12.912;2022-08-07T05:33:46;7.75;;;3.38;;
57667;SDS011;43499;52.366;12.912;2022-08-07T05:34:51;5.78;;;3.40;;
57667;SDS011;43499;52.366;12.912;2022-08-07T05:35:53;6.43;;;3.70;;
57667;SDS011;43499;52.366;12.912;2022-08-07T05:36:57;5.53;;;3.17;;
57667;SDS011;43499;52.366;12.912;2022-08-07T05:37:58;7.18;;;3.13;;
57667;SDS011;43499;52.366;12.912;2022-08-07T05:39:02;9.25;;;4.25;;
57667;SDS011;43499;52.366;12.912;2022-08-07T05:40:04;7.88;;;3.42;;
57667;SDS011;43499;52.366;12.912;2022-08-07T05:41:06;6.05;;;3.33;;
57667;SDS011;43499;52.366;12.912;2022-08-07T05:42:09;6.38;;;3.67;;
57667;SDS011;43499;52.366;12.912;2022-08-07T05:43:11;6.25;;;3.45;;
57667;SDS011;43499;52.366;12.912;2022-08-07T05:44:12;7.05;;;3.83;;
57667;SDS011;43499;52.366;12.912;2022-08-07T05:45:17;9.25;;;3.75;;
57667;SDS011;43499;52.366;12.912;2022-08-07T05:46:20;7.13;;;3.63;;
57667;SDS011;43499;52.366;12.912;2022-08-07T05:47:24;8.38;;;3.50;;
57667;SDS011;43499;52.366;12.912;2022-08-07T05:48:27;10.93;;;3.63;;
57667;SDS011;43499;52.366;12.912;2022-08-07T05:49:28;6.22;;;3.65;;
57667;SDS011;43499;52.366;12.912;2022-08-07T05:50:31;11.23;;;3.85;;
57667;SDS011;43499;52.366;12.912;2022-08-07T05:51:33;5.57;;;3.13;;
57667;SDS011;43499;52.366;12.912;2022-08-07T05:52:35;6.60;;;3.28;;
57667;SDS011;43499;52.366;12.912;2022-08-07T05:53:37;6.32;;;3.38;;
57667;SDS011;43499;52.366;12.912;2022-08-07T05:54:38;8.25;;;3.55;;
57667;SDS011;43499;52.366;12.912;2022-08-07T05:55:40;9.13;;;3.70;;
57667;SDS011;43499;52.366;12.912;2022-08-07T05:56:42;5.35;;;3.22;;
57667;SDS011;43499;52.366;12.912;2022-08-07T05:57:45;6.75;;;3.30;;
57667;SDS011;43499;52.366;12.912;2022-08-07T05:58:47;8.75;;;3.22;;
57667;SDS011;43499;52.366;12.912;2022-08-07T05:59:50;4.78;;;2.97;;
57667;SDS011;43499;52.366;12.912;2022-08-07T06:00:52;3.80;;;2.95;;
57667;SDS011;43499;52.366;12.912;2022-08-07T06:01:56;4.40;;;2.97;;
57667;SDS011;43499;52.366;12.912;2022-08-07T06:02:59;4.50;;;3.03;;
57667;SDS011;43499;52.366;12.912;2022-08-07T06:04:04;7.15;;;2.90;;
57667;SDS011;43499;52.366;12.912;2022-08-07T06:05:09;4.15;;;2.90;;
57667;SDS011;43499;52.366;12.912;2022-08-07T06:06:13;4.88;;;2.85;;
57667;SDS011;43499;52.366;12.912;2022-08-07T06:07:15;6.70;;;3.25;;
57667;SDS011;43499;52.366;12.912;2022-08-07T06:08:18;5.90;;;3.20;;
57667;SDS011;43499;52.366;12.912;2022-08-07T06:09:19;8.23;;;2.90;;
57667;SDS011;43499;52.366;12.912;2022-08-07T06:10:21;7.88;;;3.30;;
57667;SDS011;43499;52.366;12.912;2022-08-07T06:11:23;7.28;;;2.92;;
57667;SDS011;43499;52.366;12.912;2022-08-07T06:12:25;5.18;;;3.22;;
57667;SDS011;43499;52.366;12.912;2022-08-07T06:13:27;5.50;;;2.95;;
57667;SDS011;43499;52.366;12.912;2022-08-07T06:14:29;3.85;;;2.88;;
57667;SDS011;43499;52.366;12.912;2022-08-07T06:15:30;9.40;;;3.28;;